Shepherd, Montana
Current Conditions -  °F | °C
As of 10:53 AM on Friday 19 Dec 2014 (Local Time) from KBIL Reporting Station
Broken Clouds Broken Clouds  
Wind Chill: 24°   Ceiling: 18000
Heat Index: 33°   Visibility: 10mi
Dew Point: 19°   Wind: 13mph
Humidity: 56%   Direction: 210°SSW
Pressure: 29.93"   Gusts: NA
Location:  45.94°N, 108.34°W
Report Text: KBIL 191753Z 21011KT 10SM SCT100 BKN180 01/M07 A2993 RMK AO2 SLP164 ACSL DSNT SE-S T00061072 10006 21022 58000
Loading
Personal Weather Stations






























Interactive Weather Map New forecast layout! Learn more

10-Day Weather Forecast

Advertisements
Track Severe Weather on mobile